BCS13 SCGZ-SCRM
Flight info
| Callsign | BCS13 |
|---|---|
| Flight time | 1h 36m |
| Altitude | 29000 |
| Route | GEBOS W56 MIDAL DCT KRILL PAMES1 |
| Aircraft | RJ1H/M-SDFGIRWY/LB1 |
Departure
| Time | 2026-05-07 13:21 |
|---|---|
| Airport | Guardia Marina Zañartu Airport (SCGZ) |
Arrival
| Time | 2026-05-07 14:57 |
|---|---|
| Airport | Teniente Rodolfo Marsh Martin Airport (SCRM) |
| Time | Latitude | Longitude | Altitude | Speed | Heading |
|---|---|---|---|---|---|
| 2026-05-07 12:41 | -54.93214 | -67.61672 | 63 ft | 0 kts | 160° |
| 2026-05-07 13:16 | -54.93219 | -67.61678 | 62 ft | 1 kts | 246° |
| 2026-05-07 13:16 | -54.93216 | -67.61687 | 56 ft | 0 kts | 333° |
| 2026-05-07 13:16 | -54.93213 | -67.61688 | 58 ft | 2 kts | 347° |
| 2026-05-07 13:17 | -54.93180 | -67.61656 | 64 ft | 9 kts | 32° |
| 2026-05-07 13:17 | -54.93117 | -67.61689 | 65 ft | 13 kts | 288° |
| 2026-05-07 13:17 | -54.93109 | -67.61884 | 71 ft | 19 kts | 271° |
| 2026-05-07 13:17 | -54.93105 | -67.62162 | 71 ft | 27 kts | 271° |
| 2026-05-07 13:18 | -54.93103 | -67.62531 | 77 ft | 33 kts | 272° |
| 2026-05-07 13:18 | -54.93100 | -67.62965 | 91 ft | 39 kts | 272° |
| 2026-05-07 13:18 | -54.93087 | -67.63470 | 105 ft | 35 kts | 281° |
| 2026-05-07 13:18 | -54.93065 | -67.63687 | 109 ft | 7 kts | 290° |
| 2026-05-07 13:19 | -54.93061 | -67.63707 | 107 ft | 1 kts | 280° |
| 2026-05-07 13:19 | -54.93081 | -67.63729 | 107 ft | 5 kts | 190° |
| 2026-05-07 13:19 | -54.93092 | -67.63711 | 108 ft | 0 kts | 91° |
| 2026-05-07 13:19 | -54.93093 | -67.63702 | 108 ft | 0 kts | 90° |
| 2026-05-07 13:20 | -54.93093 | -67.63701 | 108 ft | 0 kts | 90° |
| 2026-05-07 13:20 | -54.93093 | -67.63624 | 107 ft | 17 kts | 90° |
| 2026-05-07 13:20 | -54.93096 | -67.63188 | 99 ft | 69 kts | 91° |
| 2026-05-07 13:20 | -54.93116 | -67.61935 | 91 ft | 131 kts | 96° |
| 2026-05-07 13:21 | -54.93156 | -67.60288 | 364 ft | 137 kts | 94° |
| 2026-05-07 13:21 | -54.93214 | -67.58659 | 725 ft | 135 kts | 94° |
| 2026-05-07 13:21 | -54.93223 | -67.57031 | 1062 ft | 135 kts | 89° |
| 2026-05-07 13:21 | -54.93173 | -67.55369 | 1368 ft | 143 kts | 87° |
| 2026-05-07 13:22 | -54.93098 | -67.53621 | 1768 ft | 146 kts | 86° |
| 2026-05-07 13:22 | -54.92978 | -67.51837 | 2201 ft | 155 kts | 83° |
| 2026-05-07 13:22 | -54.92800 | -67.49831 | 2481 ft | 181 kts | 83° |
| 2026-05-07 13:22 | -54.92719 | -67.47633 | 3137 ft | 174 kts | 102° |
| 2026-05-07 13:23 | -54.93238 | -67.45854 | 3765 ft | 175 kts | 146° |
| 2026-05-07 13:23 | -54.94307 | -67.44930 | 4272 ft | 173 kts | 154° |
| 2026-05-07 13:23 | -54.95462 | -67.43937 | 4491 ft | 196 kts | 153° |
| 2026-05-07 13:23 | -54.96749 | -67.42842 | 4670 ft | 215 kts | 153° |
| 2026-05-07 13:24 | -54.98094 | -67.41476 | 4859 ft | 232 kts | 146° |
| 2026-05-07 13:24 | -54.99474 | -67.39856 | 5092 ft | 246 kts | 146° |
| 2026-05-07 13:24 | -55.00910 | -67.38116 | 5336 ft | 255 kts | 145° |
| 2026-05-07 13:24 | -55.02377 | -67.36331 | 5699 ft | 259 kts | 146° |
| 2026-05-07 13:25 | -55.03873 | -67.34535 | 6080 ft | 262 kts | 146° |
| 2026-05-07 13:25 | -55.05386 | -67.32734 | 6461 ft | 265 kts | 146° |
| 2026-05-07 13:25 | -55.06916 | -67.30922 | 6828 ft | 267 kts | 147° |
| 2026-05-07 13:25 | -55.08467 | -67.29125 | 7178 ft | 269 kts | 147° |
| 2026-05-07 13:26 | -55.10032 | -67.27315 | 7507 ft | 270 kts | 147° |
| 2026-05-07 13:26 | -55.11607 | -67.25497 | 7821 ft | 272 kts | 147° |
| 2026-05-07 13:26 | -55.13194 | -67.23669 | 8144 ft | 274 kts | 148° |
| 2026-05-07 13:26 | -55.14840 | -67.22065 | 8433 ft | 274 kts | 154° |
| 2026-05-07 13:27 | -55.16440 | -67.20214 | 8708 ft | 277 kts | 142° |
| 2026-05-07 13:27 | -55.17958 | -67.18105 | 8990 ft | 279 kts | 144° |
| 2026-05-07 13:27 | -55.19540 | -67.16131 | 9274 ft | 280 kts | 147° |
| 2026-05-07 13:27 | -55.21160 | -67.14228 | 9563 ft | 281 kts | 147° |
| 2026-05-07 13:28 | -55.22799 | -67.12330 | 9807 ft | 284 kts | 148° |
| 2026-05-07 13:28 | -55.24461 | -67.10433 | 10056 ft | 286 kts | 149° |
| 2026-05-07 13:28 | -55.26130 | -67.08523 | 10308 ft | 287 kts | 148° |
| 2026-05-07 13:28 | -55.27803 | -67.06588 | 10528 ft | 289 kts | 148° |
| 2026-05-07 13:29 | -55.29514 | -67.04606 | 10527 ft | 299 kts | 148° |
| 2026-05-07 13:29 | -55.31278 | -67.02563 | 10550 ft | 308 kts | 148° |
| 2026-05-07 13:29 | -55.33090 | -67.00469 | 10580 ft | 316 kts | 148° |
| 2026-05-07 13:29 | -55.34940 | -66.98311 | 10614 ft | 322 kts | 147° |
| 2026-05-07 13:30 | -55.36799 | -66.96098 | 10768 ft | 323 kts | 147° |
| 2026-05-07 13:30 | -55.38666 | -66.93888 | 10938 ft | 324 kts | 148° |
| 2026-05-07 13:30 | -55.40549 | -66.91695 | 11104 ft | 325 kts | 148° |
| 2026-05-07 13:30 | -55.42431 | -66.89471 | 11265 ft | 326 kts | 147° |
| 2026-05-07 13:31 | -55.44311 | -66.87226 | 11419 ft | 327 kts | 148° |
| 2026-05-07 13:31 | -55.46214 | -66.84989 | 11507 ft | 330 kts | 148° |
| 2026-05-07 13:31 | -55.48097 | -66.82749 | 11660 ft | 331 kts | 148° |
| 2026-05-07 13:31 | -55.50008 | -66.80477 | 11819 ft | 332 kts | 148° |
| 2026-05-07 13:32 | -55.51926 | -66.78189 | 11960 ft | 333 kts | 148° |
| 2026-05-07 13:32 | -55.53848 | -66.75898 | 12117 ft | 334 kts | 148° |
| 2026-05-07 13:32 | -55.55779 | -66.73594 | 12266 ft | 334 kts | 148° |
| 2026-05-07 13:32 | -55.57707 | -66.71288 | 12401 ft | 335 kts | 148° |
| 2026-05-07 13:33 | -55.59643 | -66.68976 | 12526 ft | 336 kts | 148° |
| 2026-05-07 13:33 | -55.61581 | -66.66654 | 12647 ft | 337 kts | 148° |
| 2026-05-07 13:33 | -55.63533 | -66.64321 | 12681 ft | 341 kts | 148° |
| 2026-05-07 13:33 | -55.65512 | -66.61952 | 12687 ft | 346 kts | 148° |
| 2026-05-07 13:34 | -55.67520 | -66.59551 | 12712 ft | 350 kts | 148° |
| 2026-05-07 13:34 | -55.71592 | -66.54705 | 12723 ft | 358 kts | 149° |
| 2026-05-07 13:34 | -55.73681 | -66.52250 | 12730 ft | 362 kts | 149° |
| 2026-05-07 13:35 | -55.75776 | -66.49731 | 12738 ft | 365 kts | 148° |
| 2026-05-07 13:35 | -55.77877 | -66.47169 | 12744 ft | 367 kts | 148° |
| 2026-05-07 13:35 | -55.79983 | -66.44593 | 12749 ft | 369 kts | 148° |
| 2026-05-07 13:35 | -55.82110 | -66.42033 | 12754 ft | 370 kts | 149° |
| 2026-05-07 13:36 | -55.84255 | -66.39458 | 12757 ft | 371 kts | 148° |
| 2026-05-07 13:36 | -55.86369 | -66.36870 | 12759 ft | 370 kts | 148° |
| 2026-05-07 13:36 | -55.88494 | -66.34277 | 12761 ft | 372 kts | 148° |
| 2026-05-07 13:36 | -55.90596 | -66.31750 | 12782 ft | 362 kts | 149° |
| 2026-05-07 13:37 | -55.92691 | -66.29199 | 12774 ft | 369 kts | 149° |
| 2026-05-07 13:37 | -55.94837 | -66.26605 | 12773 ft | 375 kts | 149° |
| 2026-05-07 13:37 | -55.96994 | -66.23985 | 13054 ft | 371 kts | 148° |
| 2026-05-07 13:37 | -55.99074 | -66.21413 | 13782 ft | 357 kts | 149° |
| 2026-05-07 13:38 | -56.01102 | -66.18912 | 14149 ft | 355 kts | 148° |
| 2026-05-07 13:38 | -56.02473 | -66.17208 | 14288 ft | 356 kts | 148° |
| 2026-05-07 13:38 | -56.04515 | -66.14691 | 14494 ft | 357 kts | 149° |
| 2026-05-07 13:38 | -56.06567 | -66.12166 | 14704 ft | 359 kts | 149° |
| 2026-05-07 13:39 | -56.08630 | -66.09633 | 14919 ft | 360 kts | 149° |
| 2026-05-07 13:39 | -56.10702 | -66.07091 | 15135 ft | 362 kts | 149° |
| 2026-05-07 13:39 | -56.12779 | -66.04538 | 15350 ft | 363 kts | 149° |
| 2026-05-07 13:39 | -56.14841 | -66.02009 | 15563 ft | 365 kts | 149° |
| 2026-05-07 13:40 | -56.16937 | -65.99423 | 15789 ft | 366 kts | 149° |
| 2026-05-07 13:40 | -56.19043 | -65.96829 | 16020 ft | 368 kts | 149° |
| 2026-05-07 13:40 | -56.21185 | -65.94185 | 16251 ft | 369 kts | 149° |
| 2026-05-07 13:40 | -56.23277 | -65.91606 | 16482 ft | 370 kts | 149° |
| 2026-05-07 13:41 | -56.25408 | -65.88979 | 16715 ft | 372 kts | 149° |
| 2026-05-07 13:41 | -56.27534 | -65.86320 | 16958 ft | 373 kts | 148° |
| 2026-05-07 13:41 | -56.29666 | -65.83626 | 17198 ft | 374 kts | 148° |
| 2026-05-07 13:41 | -56.31818 | -65.80958 | 17436 ft | 376 kts | 149° |
| 2026-05-07 13:42 | -56.33978 | -65.78271 | 17680 ft | 377 kts | 148° |
| 2026-05-07 13:42 | -56.36130 | -65.75547 | 17919 ft | 379 kts | 148° |
| 2026-05-07 13:42 | -56.38313 | -65.72890 | 18153 ft | 379 kts | 152° |
| 2026-05-07 13:42 | -56.40614 | -65.70577 | 18392 ft | 378 kts | 156° |
| 2026-05-07 13:43 | -56.42963 | -65.68417 | 18613 ft | 379 kts | 157° |
| 2026-05-07 13:43 | -56.45300 | -65.66323 | 18841 ft | 380 kts | 158° |
| 2026-05-07 13:43 | -56.47673 | -65.64220 | 19074 ft | 380 kts | 157° |
| 2026-05-07 13:43 | -56.50042 | -65.62084 | 19315 ft | 381 kts | 157° |
| 2026-05-07 13:44 | -56.52413 | -65.59939 | 19555 ft | 381 kts | 156° |
| 2026-05-07 13:44 | -56.54782 | -65.57742 | 19786 ft | 382 kts | 156° |
| 2026-05-07 13:44 | -56.57147 | -65.55539 | 20012 ft | 383 kts | 156° |
| 2026-05-07 13:44 | -56.59517 | -65.53321 | 20236 ft | 383 kts | 156° |
| 2026-05-07 13:45 | -56.61883 | -65.51109 | 20537 ft | 382 kts | 156° |
| 2026-05-07 13:45 | -56.64248 | -65.48913 | 20775 ft | 382 kts | 156° |
| 2026-05-07 13:45 | -56.66615 | -65.46716 | 20985 ft | 382 kts | 156° |
| 2026-05-07 13:45 | -56.68988 | -65.44520 | 21193 ft | 383 kts | 156° |
| 2026-05-07 13:46 | -56.71364 | -65.42303 | 21391 ft | 384 kts | 155° |
| 2026-05-07 13:46 | -56.73732 | -65.40045 | 21595 ft | 385 kts | 155° |
| 2026-05-07 13:46 | -56.76109 | -65.37791 | 21806 ft | 385 kts | 155° |
| 2026-05-07 13:46 | -56.78497 | -65.35568 | 21993 ft | 386 kts | 155° |
| 2026-05-07 13:47 | -56.80884 | -65.33307 | 22202 ft | 387 kts | 155° |
| 2026-05-07 13:47 | -56.83243 | -65.31061 | 22402 ft | 387 kts | 155° |
| 2026-05-07 13:47 | -56.85635 | -65.28777 | 22620 ft | 388 kts | 155° |
| 2026-05-07 13:47 | -56.88023 | -65.26506 | 22857 ft | 387 kts | 155° |
| 2026-05-07 13:48 | -56.90422 | -65.24251 | 23039 ft | 388 kts | 155° |
| 2026-05-07 13:48 | -56.92824 | -65.21983 | 23219 ft | 388 kts | 155° |
| 2026-05-07 13:48 | -56.95223 | -65.19702 | 23389 ft | 389 kts | 155° |
| 2026-05-07 13:48 | -56.97629 | -65.17406 | 23553 ft | 390 kts | 155° |
| 2026-05-07 13:49 | -57.00042 | -65.15100 | 23737 ft | 391 kts | 155° |
| 2026-05-07 13:49 | -57.02457 | -65.12799 | 23885 ft | 391 kts | 155° |
| 2026-05-07 13:49 | -57.04881 | -65.10504 | 24026 ft | 392 kts | 155° |
| 2026-05-07 13:49 | -57.07305 | -65.08194 | 24161 ft | 393 kts | 155° |
| 2026-05-07 13:50 | -57.09731 | -65.05876 | 24304 ft | 394 kts | 155° |
| 2026-05-07 13:50 | -57.12155 | -65.03560 | 24566 ft | 390 kts | 155° |
| 2026-05-07 13:50 | -57.14561 | -65.01263 | 24765 ft | 389 kts | 154° |
| 2026-05-07 13:50 | -57.16958 | -64.98955 | 24961 ft | 388 kts | 155° |
| 2026-05-07 13:51 | -57.19342 | -64.96640 | 25133 ft | 387 kts | 155° |
| 2026-05-07 13:51 | -57.21724 | -64.94323 | 25323 ft | 386 kts | 154° |
| 2026-05-07 13:51 | -57.24102 | -64.92026 | 25474 ft | 386 kts | 155° |
| 2026-05-07 13:51 | -57.26485 | -64.89733 | 25639 ft | 386 kts | 154° |
| 2026-05-07 13:52 | -57.28861 | -64.87427 | 25799 ft | 386 kts | 155° |
| 2026-05-07 13:52 | -57.31234 | -64.85112 | 25965 ft | 385 kts | 154° |
| 2026-05-07 13:52 | -57.33573 | -64.82832 | 26150 ft | 384 kts | 155° |
| 2026-05-07 13:52 | -57.35933 | -64.80538 | 26384 ft | 381 kts | 154° |
| 2026-05-07 13:53 | -57.38276 | -64.78255 | 26590 ft | 380 kts | 154° |
| 2026-05-07 13:53 | -57.40619 | -64.75973 | 26748 ft | 380 kts | 154° |
| 2026-05-07 13:53 | -57.42949 | -64.73686 | 26905 ft | 379 kts | 154° |
| 2026-05-07 13:53 | -57.45274 | -64.71391 | 27081 ft | 378 kts | 154° |
| 2026-05-07 13:54 | -57.47598 | -64.69089 | 27211 ft | 379 kts | 154° |
| 2026-05-07 13:54 | -57.49921 | -64.66793 | 27357 ft | 379 kts | 154° |
| 2026-05-07 13:54 | -57.52251 | -64.64501 | 27488 ft | 379 kts | 154° |
| 2026-05-07 13:54 | -57.54575 | -64.62204 | 27643 ft | 378 kts | 154° |
| 2026-05-07 13:55 | -57.56891 | -64.59913 | 27822 ft | 377 kts | 154° |
| 2026-05-07 13:55 | -57.59214 | -64.57631 | 27936 ft | 377 kts | 154° |
| 2026-05-07 13:55 | -57.61529 | -64.55348 | 28143 ft | 376 kts | 154° |
| 2026-05-07 13:55 | -57.63844 | -64.53073 | 28287 ft | 376 kts | 154° |
| 2026-05-07 13:56 | -57.66153 | -64.50802 | 28437 ft | 375 kts | 154° |
| 2026-05-07 13:56 | -57.68458 | -64.48532 | 28603 ft | 374 kts | 154° |
| 2026-05-07 13:56 | -57.70759 | -64.46247 | 28719 ft | 375 kts | 153° |
| 2026-05-07 13:56 | -57.73055 | -64.43925 | 28853 ft | 375 kts | 153° |
| 2026-05-07 13:57 | -57.75350 | -64.41609 | 28976 ft | 375 kts | 154° |
| 2026-05-07 13:57 | -57.77645 | -64.39320 | 29093 ft | 371 kts | 154° |
| 2026-05-07 13:57 | -57.79906 | -64.37070 | 29120 ft | 367 kts | 154° |
| 2026-05-07 13:58 | -57.84391 | -64.32569 | 29144 ft | 368 kts | 153° |
| 2026-05-07 13:58 | -57.88885 | -64.27997 | 29145 ft | 367 kts | 153° |
| 2026-05-07 13:59 | -57.93391 | -64.23457 | 29137 ft | 367 kts | 153° |
| 2026-05-07 13:59 | -57.97899 | -64.18860 | 29142 ft | 369 kts | 153° |
| 2026-05-07 14:00 | -58.02431 | -64.14314 | 29146 ft | 369 kts | 154° |
| 2026-05-07 14:00 | -58.07034 | -64.09833 | 29156 ft | 375 kts | 154° |
| 2026-05-07 14:01 | -58.11719 | -64.05263 | 29163 ft | 382 kts | 154° |
| 2026-05-07 14:01 | -58.16475 | -64.00574 | 29160 ft | 387 kts | 154° |
| 2026-05-07 14:02 | -58.21246 | -63.95864 | 29152 ft | 389 kts | 154° |
| 2026-05-07 14:02 | -58.26050 | -63.91113 | 29147 ft | 389 kts | 154° |
| 2026-05-07 14:03 | -58.30854 | -63.86355 | 29150 ft | 389 kts | 154° |
| 2026-05-07 14:03 | -58.35659 | -63.81592 | 29160 ft | 389 kts | 154° |
| 2026-05-07 14:04 | -58.40455 | -63.76816 | 29155 ft | 388 kts | 154° |
| 2026-05-07 14:04 | -58.45235 | -63.72043 | 29151 ft | 388 kts | 154° |
| 2026-05-07 14:05 | -58.50026 | -63.67252 | 29149 ft | 388 kts | 154° |
| 2026-05-07 14:05 | -58.54802 | -63.62414 | 29149 ft | 388 kts | 154° |
| 2026-05-07 14:06 | -58.59544 | -63.57629 | 29150 ft | 387 kts | 154° |
| 2026-05-07 14:06 | -58.64312 | -63.52812 | 29156 ft | 385 kts | 154° |
| 2026-05-07 14:07 | -58.69045 | -63.48002 | 29152 ft | 385 kts | 154° |
| 2026-05-07 14:07 | -58.73781 | -63.43153 | 29152 ft | 386 kts | 154° |
| 2026-05-07 14:08 | -58.78517 | -63.38299 | 29148 ft | 386 kts | 154° |
| 2026-05-07 14:08 | -58.83248 | -63.33433 | 29147 ft | 385 kts | 153° |
| 2026-05-07 14:09 | -58.87956 | -63.28611 | 29146 ft | 386 kts | 154° |
| 2026-05-07 14:09 | -58.92685 | -63.23665 | 29147 ft | 386 kts | 153° |
| 2026-05-07 14:10 | -58.97422 | -63.18760 | 29147 ft | 386 kts | 154° |
| 2026-05-07 14:10 | -59.02154 | -63.13818 | 29147 ft | 386 kts | 153° |
| 2026-05-07 14:11 | -59.06884 | -63.08898 | 29146 ft | 386 kts | 153° |
| 2026-05-07 14:11 | -59.11610 | -63.03945 | 29156 ft | 385 kts | 154° |
| 2026-05-07 14:12 | -59.16306 | -62.99018 | 29145 ft | 382 kts | 153° |
| 2026-05-07 14:12 | -59.20985 | -62.94096 | 29147 ft | 382 kts | 153° |
| 2026-05-07 14:13 | -59.25666 | -62.89138 | 29147 ft | 383 kts | 154° |
| 2026-05-07 14:13 | -59.30346 | -62.84157 | 29147 ft | 383 kts | 154° |
| 2026-05-07 14:14 | -59.34993 | -62.79207 | 29145 ft | 382 kts | 153° |
| 2026-05-07 14:14 | -59.39662 | -62.74265 | 29148 ft | 379 kts | 154° |
| 2026-05-07 14:15 | -59.44286 | -62.69299 | 29145 ft | 378 kts | 154° |
| 2026-05-07 14:15 | -59.48909 | -62.64332 | 29149 ft | 379 kts | 153° |
| 2026-05-07 14:16 | -59.53533 | -62.59361 | 29144 ft | 379 kts | 153° |
| 2026-05-07 14:16 | -59.58161 | -62.54361 | 29145 ft | 379 kts | 153° |
| 2026-05-07 14:17 | -59.62781 | -62.49336 | 29160 ft | 379 kts | 154° |
| 2026-05-07 14:17 | -59.67397 | -62.44360 | 29141 ft | 376 kts | 154° |
| 2026-05-07 14:18 | -59.71981 | -62.39365 | 29138 ft | 376 kts | 153° |
| 2026-05-07 14:18 | -59.76562 | -62.34357 | 29140 ft | 376 kts | 153° |
| 2026-05-07 14:19 | -59.81150 | -62.29310 | 29140 ft | 377 kts | 154° |
| 2026-05-07 14:19 | -59.85732 | -62.24250 | 29137 ft | 377 kts | 154° |
| 2026-05-07 14:20 | -59.90315 | -62.19192 | 29145 ft | 376 kts | 154° |
| 2026-05-07 14:20 | -59.94864 | -62.14170 | 29133 ft | 375 kts | 154° |
| 2026-05-07 14:21 | -59.99431 | -62.09122 | 29137 ft | 375 kts | 153° |
| 2026-05-07 14:21 | -60.03991 | -62.04034 | 29130 ft | 375 kts | 154° |
| 2026-05-07 14:22 | -60.08556 | -61.98956 | 29130 ft | 376 kts | 153° |
| 2026-05-07 14:22 | -60.13114 | -61.93841 | 29132 ft | 375 kts | 154° |
| 2026-05-07 14:23 | -60.17680 | -61.88745 | 29130 ft | 375 kts | 154° |
| 2026-05-07 14:23 | -60.22221 | -61.83615 | 29125 ft | 374 kts | 154° |
| 2026-05-07 14:24 | -60.26729 | -61.78527 | 29129 ft | 374 kts | 153° |
| 2026-05-07 14:24 | -60.31265 | -61.73386 | 29127 ft | 374 kts | 153° |
| 2026-05-07 14:25 | -60.35798 | -61.68222 | 29121 ft | 374 kts | 154° |
| 2026-05-07 14:25 | -60.40324 | -61.63045 | 29147 ft | 374 kts | 154° |
| 2026-05-07 14:26 | -60.44123 | -61.58716 | 29131 ft | 374 kts | 153° |
| 2026-05-07 14:26 | -60.48650 | -61.53521 | 29122 ft | 374 kts | 153° |
| 2026-05-07 14:27 | -60.53170 | -61.48309 | 29118 ft | 373 kts | 153° |
| 2026-05-07 14:27 | -60.57657 | -61.43124 | 29115 ft | 373 kts | 154° |
| 2026-05-07 14:28 | -60.62172 | -61.37876 | 29119 ft | 373 kts | 153° |
| 2026-05-07 14:28 | -60.66680 | -61.32619 | 29127 ft | 373 kts | 153° |
| 2026-05-07 14:29 | -60.71192 | -61.27393 | 29115 ft | 371 kts | 153° |
| 2026-05-07 14:29 | -60.75677 | -61.22144 | 29110 ft | 371 kts | 153° |
| 2026-05-07 14:30 | -60.80154 | -61.16878 | 29108 ft | 371 kts | 153° |
| 2026-05-07 14:30 | -60.84632 | -61.11592 | 29111 ft | 371 kts | 153° |
| 2026-05-07 14:31 | -60.89082 | -61.06319 | 29102 ft | 371 kts | 153° |
| 2026-05-07 14:31 | -60.93558 | -61.01014 | 29120 ft | 371 kts | 153° |
| 2026-05-07 14:32 | -60.98012 | -60.95753 | 29100 ft | 368 kts | 153° |
| 2026-05-07 14:32 | -61.02446 | -60.90459 | 29102 ft | 368 kts | 153° |
| 2026-05-07 14:33 | -61.06882 | -60.85140 | 29106 ft | 369 kts | 153° |
| 2026-05-07 14:33 | -61.11321 | -60.79800 | 29097 ft | 369 kts | 153° |
| 2026-05-07 14:34 | -61.15753 | -60.74441 | 29096 ft | 369 kts | 153° |
| 2026-05-07 14:34 | -61.20181 | -60.69078 | 29021 ft | 366 kts | 152° |
| 2026-05-07 14:34 | -61.22267 | -60.66100 | 28103 ft | 370 kts | 147° |
| 2026-05-07 14:35 | -61.24301 | -60.62822 | 27293 ft | 370 kts | 146° |
| 2026-05-07 14:35 | -61.26304 | -60.59479 | 26512 ft | 369 kts | 145° |
| 2026-05-07 14:35 | -61.28285 | -60.56100 | 25717 ft | 368 kts | 145° |
| 2026-05-07 14:35 | -61.30253 | -60.52712 | 24925 ft | 366 kts | 145° |
| 2026-05-07 14:36 | -61.32224 | -60.49353 | 24125 ft | 365 kts | 146° |
| 2026-05-07 14:36 | -61.34184 | -60.46016 | 23253 ft | 363 kts | 146° |
| 2026-05-07 14:36 | -61.36145 | -60.42735 | 22400 ft | 359 kts | 146° |
| 2026-05-07 14:36 | -61.38078 | -60.39479 | 21577 ft | 356 kts | 146° |
| 2026-05-07 14:37 | -61.39998 | -60.36222 | 20774 ft | 354 kts | 146° |
| 2026-05-07 14:37 | -61.43657 | -60.30002 | 19062 ft | 330 kts | 146° |
| 2026-05-07 14:37 | -61.45422 | -60.27056 | 18688 ft | 321 kts | 146° |
| 2026-05-07 14:38 | -61.47161 | -60.24142 | 18065 ft | 319 kts | 146° |
| 2026-05-07 14:38 | -61.48880 | -60.21213 | 17421 ft | 318 kts | 146° |
| 2026-05-07 14:38 | -61.50575 | -60.18324 | 16789 ft | 317 kts | 146° |
| 2026-05-07 14:38 | -61.52278 | -60.15412 | 16173 ft | 316 kts | 146° |
| 2026-05-07 14:39 | -61.53980 | -60.12511 | 15578 ft | 315 kts | 145° |
| 2026-05-07 14:39 | -61.55632 | -60.09488 | 14995 ft | 316 kts | 142° |
| 2026-05-07 14:39 | -61.57229 | -60.06324 | 14429 ft | 315 kts | 141° |
| 2026-05-07 14:39 | -61.58812 | -60.03154 | 13878 ft | 314 kts | 141° |
| 2026-05-07 14:40 | -61.60388 | -59.99975 | 13288 ft | 313 kts | 141° |
| 2026-05-07 14:40 | -61.61954 | -59.96812 | 12726 ft | 312 kts | 141° |
| 2026-05-07 14:40 | -61.63514 | -59.93649 | 12179 ft | 311 kts | 140° |
| 2026-05-07 14:40 | -61.65068 | -59.90503 | 11658 ft | 309 kts | 141° |
| 2026-05-07 14:41 | -61.66638 | -59.87413 | 11114 ft | 309 kts | 141° |
| 2026-05-07 14:41 | -61.68203 | -59.84306 | 10598 ft | 308 kts | 141° |
| 2026-05-07 14:41 | -61.69753 | -59.81193 | 10112 ft | 307 kts | 141° |
| 2026-05-07 14:41 | -61.71295 | -59.78079 | 9600 ft | 306 kts | 140° |
| 2026-05-07 14:42 | -61.72827 | -59.74969 | 9110 ft | 304 kts | 140° |
| 2026-05-07 14:42 | -61.74348 | -59.71886 | 8640 ft | 302 kts | 140° |
| 2026-05-07 14:42 | -61.75861 | -59.68811 | 8168 ft | 301 kts | 140° |
| 2026-05-07 14:42 | -61.77361 | -59.65753 | 7705 ft | 300 kts | 140° |
| 2026-05-07 14:43 | -61.78838 | -59.62663 | 7261 ft | 298 kts | 140° |
| 2026-05-07 14:43 | -61.80318 | -59.59600 | 6831 ft | 296 kts | 140° |
| 2026-05-07 14:43 | -61.81796 | -59.56579 | 6409 ft | 295 kts | 140° |
| 2026-05-07 14:43 | -61.83252 | -59.53614 | 5980 ft | 293 kts | 140° |
| 2026-05-07 14:44 | -61.84720 | -59.50637 | 5551 ft | 292 kts | 140° |
| 2026-05-07 14:44 | -61.86181 | -59.47662 | 5138 ft | 290 kts | 140° |
| 2026-05-07 14:44 | -61.87633 | -59.44710 | 4739 ft | 288 kts | 140° |
| 2026-05-07 14:44 | -61.89075 | -59.41770 | 4349 ft | 287 kts | 141° |
| 2026-05-07 14:45 | -61.90509 | -59.38842 | 3939 ft | 286 kts | 140° |
| 2026-05-07 14:45 | -61.91941 | -59.35919 | 3535 ft | 285 kts | 141° |
| 2026-05-07 14:45 | -61.93361 | -59.33002 | 3164 ft | 283 kts | 141° |
| 2026-05-07 14:45 | -61.94763 | -59.30098 | 2813 ft | 280 kts | 140° |
| 2026-05-07 14:46 | -61.96157 | -59.27215 | 2426 ft | 279 kts | 140° |
| 2026-05-07 14:46 | -61.97547 | -59.24335 | 2062 ft | 278 kts | 140° |
| 2026-05-07 14:46 | -61.98927 | -59.21460 | 1753 ft | 279 kts | 140° |
| 2026-05-07 14:46 | -62.00314 | -59.18569 | 1600 ft | 279 kts | 140° |
| 2026-05-07 14:47 | -62.01701 | -59.15685 | 1568 ft | 279 kts | 140° |
| 2026-05-07 14:47 | -62.03089 | -59.12797 | 1543 ft | 278 kts | 140° |
| 2026-05-07 14:47 | -62.04470 | -59.09906 | 1533 ft | 278 kts | 140° |
| 2026-05-07 14:47 | -62.05851 | -59.07015 | 1529 ft | 278 kts | 140° |
| 2026-05-07 14:48 | -62.07233 | -59.04132 | 1502 ft | 278 kts | 140° |
| 2026-05-07 14:48 | -62.08609 | -59.01248 | 1501 ft | 277 kts | 140° |
| 2026-05-07 14:48 | -62.09975 | -58.98373 | 1817 ft | 275 kts | 140° |
| 2026-05-07 14:48 | -62.11322 | -58.95532 | 2131 ft | 276 kts | 140° |
| 2026-05-07 14:49 | -62.12718 | -58.92632 | 2299 ft | 279 kts | 140° |
| 2026-05-07 14:49 | -62.14070 | -58.89893 | 2288 ft | 247 kts | 140° |
| 2026-05-07 14:49 | -62.15214 | -58.87530 | 2266 ft | 215 kts | 140° |
| 2026-05-07 14:49 | -62.16222 | -58.85421 | 2244 ft | 191 kts | 140° |
| 2026-05-07 14:50 | -62.17172 | -58.83411 | 2241 ft | 197 kts | 140° |
| 2026-05-07 14:50 | -62.18148 | -58.81345 | 2253 ft | 198 kts | 140° |
| 2026-05-07 14:50 | -62.18943 | -58.78946 | 2243 ft | 205 kts | 109° |
| 2026-05-07 14:50 | -62.19157 | -58.75908 | 2285 ft | 207 kts | 96° |
| 2026-05-07 14:51 | -62.18833 | -58.72920 | 2269 ft | 212 kts | 55° |
| 2026-05-07 14:51 | -62.17704 | -58.70985 | 2298 ft | 209 kts | 24° |
| 2026-05-07 14:51 | -62.16556 | -58.69032 | 2364 ft | 221 kts | 63° |
| 2026-05-07 14:51 | -62.16288 | -58.65915 | 2589 ft | 212 kts | 105° |
| 2026-05-07 14:52 | -62.16975 | -58.63319 | 2661 ft | 196 kts | 147° |
| 2026-05-07 14:52 | -62.18188 | -58.62430 | 2758 ft | 181 kts | 180° |
| 2026-05-07 14:52 | -62.19413 | -58.62305 | 3057 ft | 174 kts | 181° |
| 2026-05-07 14:52 | -62.20612 | -58.62835 | 2915 ft | 184 kts | 214° |
| 2026-05-07 14:53 | -62.21282 | -58.65084 | 2789 ft | 184 kts | 257° |
| 2026-05-07 14:53 | -62.21416 | -58.67720 | 2742 ft | 168 kts | 262° |
| 2026-05-07 14:53 | -62.21487 | -58.70048 | 2691 ft | 151 kts | 263° |
| 2026-05-07 14:53 | -62.21521 | -58.72216 | 2602 ft | 141 kts | 264° |
| 2026-05-07 14:54 | -62.21541 | -58.74258 | 2394 ft | 134 kts | 265° |
| 2026-05-07 14:54 | -62.21561 | -58.76385 | 2064 ft | 149 kts | 265° |
| 2026-05-07 14:54 | -62.21566 | -58.78498 | 1740 ft | 134 kts | 265° |
| 2026-05-07 14:54 | -62.21553 | -58.80364 | 1532 ft | 116 kts | 265° |
| 2026-05-07 14:55 | -62.21534 | -58.82029 | 1470 ft | 110 kts | 265° |
| 2026-05-07 14:55 | -62.21514 | -58.83668 | 1464 ft | 111 kts | 265° |
| 2026-05-07 14:55 | -62.21494 | -58.85327 | 1474 ft | 112 kts | 265° |
| 2026-05-07 14:55 | -62.21471 | -58.87010 | 1483 ft | 114 kts | 269° |
| 2026-05-07 14:56 | -62.21026 | -58.88460 | 1492 ft | 126 kts | 315° |
| 2026-05-07 14:56 | -62.20549 | -58.89928 | 1334 ft | 116 kts | 272° |
| 2026-05-07 14:56 | -62.20415 | -58.91664 | 1132 ft | 120 kts | 274° |
| 2026-05-07 14:56 | -62.20229 | -58.93419 | 777 ft | 126 kts | 279° |
| 2026-05-07 14:57 | -62.19919 | -58.95196 | 426 ft | 127 kts | 290° |
| 2026-05-07 14:57 | -62.19547 | -58.96856 | 231 ft | 118 kts | 293° |
| 2026-05-07 14:57 | -62.19183 | -58.98303 | 148 ft | 101 kts | 297° |
| 2026-05-07 14:57 | -62.18929 | -58.99362 | 150 ft | 41 kts | 324° |
| 2026-05-07 14:58 | -62.18853 | -58.99561 | 142 ft | 7 kts | 193° |
| 2026-05-07 14:58 | -62.18869 | -58.99549 | 144 ft | 0 kts | 146° |
| 2026-05-07 14:58 | -62.18876 | -58.99481 | 143 ft | 12 kts | 91° |
| 2026-05-07 14:59 | -62.18877 | -58.99212 | 139 ft | 21 kts | 90° |
| 2026-05-07 14:59 | -62.18901 | -58.99062 | 142 ft | 1 kts | 126° |
| 2026-05-07 14:59 | -62.18900 | -58.99064 | 141 ft | 0 kts | 126° |